sensor_id;sensor_type;location;lat;lon;timestamp;temperature;humidity
19966;DHT22;10144;50.874;4.762;2023-06-04T00:00:43;15.70;96.90
19966;DHT22;10144;50.874;4.762;2023-06-04T00:03:10;15.60;97.20
19966;DHT22;10144;50.874;4.762;2023-06-04T00:05:36;15.60;97.30
19966;DHT22;10144;50.874;4.762;2023-06-04T00:08:08;15.60;97.50
19966;DHT22;10144;50.874;4.762;2023-06-04T00:10:37;15.50;97.60
19966;DHT22;10144;50.874;4.762;2023-06-04T00:13:23;15.50;97.80
19966;DHT22;10144;50.874;4.762;2023-06-04T00:15:49;15.40;98.20
19966;DHT22;10144;50.874;4.762;2023-06-04T00:18:25;15.40;98.20
19966;DHT22;10144;50.874;4.762;2023-06-04T00:20:54;15.30;98.60
19966;DHT22;10144;50.874;4.762;2023-06-04T00:23:20;15.30;99.00
19966;DHT22;10144;50.874;4.762;2023-06-04T00:25:50;15.30;99.20
19966;DHT22;10144;50.874;4.762;2023-06-04T00:28:19;15.30;99.50
19966;DHT22;10144;50.874;4.762;2023-06-04T00:34:25;15.10;99.90
19966;DHT22;10144;50.874;4.762;2023-06-04T00:36:52;15.00;99.90
19966;DHT22;10144;50.874;4.762;2023-06-04T00:39:19;15.00;99.90
19966;DHT22;10144;50.874;4.762;2023-06-04T00:41:53;14.90;99.90
19966;DHT22;10144;50.874;4.762;2023-06-04T00:44:27;14.90;99.90
19966;DHT22;10144;50.874;4.762;2023-06-04T00:46:57;14.90;99.90
19966;DHT22;10144;50.874;4.762;2023-06-04T00:49:30;14.80;99.90
19966;DHT22;10144;50.874;4.762;2023-06-04T00:51:55;14.70;99.90
19966;DHT22;10144;50.874;4.762;2023-06-04T00:54:51;14.70;99.90
19966;DHT22;10144;50.874;4.762;2023-06-04T00:57:23;14.70;99.90
19966;DHT22;10144;50.874;4.762;2023-06-04T00:59:52;14.50;99.90
19966;DHT22;10144;50.874;4.762;2023-06-04T01:02:41;14.50;99.90
19966;DHT22;10144;50.874;4.762;2023-06-04T01:08:20;14.40;99.90
19966;DHT22;10144;50.874;4.762;2023-06-04T01:11:00;14.30;99.90
19966;DHT22;10144;50.874;4.762;2023-06-04T01:13:33;14.20;99.90
19966;DHT22;10144;50.874;4.762;2023-06-04T01:16:17;14.10;99.90
19966;DHT22;10144;50.874;4.762;2023-06-04T01:19:05;14.00;99.90
19966;DHT22;10144;50.874;4.762;2023-06-04T01:22:10;14.00;99.90
19966;DHT22;10144;50.874;4.762;2023-06-04T01:24:56;14.00;99.90
19966;DHT22;10144;50.874;4.762;2023-06-04T01:30:23;13.80;99.90
19966;DHT22;10144;50.874;4.762;2023-06-04T01:32:56;13.90;99.90
19966;DHT22;10144;50.874;4.762;2023-06-04T01:35:44;13.80;99.90
19966;DHT22;10144;50.874;4.762;2023-06-04T01:41:31;13.60;99.90
19966;DHT22;10144;50.874;4.762;2023-06-04T01:44:00;13.50;99.90
19966;DHT22;10144;50.874;4.762;2023-06-04T01:46:29;13.40;99.90
19966;DHT22;10144;50.874;4.762;2023-06-04T01:52:30;13.40;99.90
19966;DHT22;10144;50.874;4.762;2023-06-04T01:54:57;13.50;99.90
19966;DHT22;10144;50.874;4.762;2023-06-04T01:57:27;13.40;99.90
19966;DHT22;10144;50.874;4.762;2023-06-04T01:59:55;13.20;99.90
19966;DHT22;10144;50.874;4.762;2023-06-04T02:02:25;13.20;99.90
19966;DHT22;10144;50.874;4.762;2023-06-04T02:04:56;13.20;99.90
19966;DHT22;10144;50.874;4.762;2023-06-04T02:07:53;13.10;99.90
19966;DHT22;10144;50.874;4.762;2023-06-04T02:13:30;13.00;99.90
19966;DHT22;10144;50.874;4.762;2023-06-04T02:15:59;12.90;99.90
19966;DHT22;10144;50.874;4.762;2023-06-04T02:18:28;12.90;99.90
19966;DHT22;10144;50.874;4.762;2023-06-04T02:20:56;12.90;99.90
19966;DHT22;10144;50.874;4.762;2023-06-04T02:23:25;12.90;99.90
19966;DHT22;10144;50.874;4.762;2023-06-04T02:26:15;12.80;99.90
19966;DHT22;10144;50.874;4.762;2023-06-04T02:28:55;12.70;99.90
19966;DHT22;10144;50.874;4.762;2023-06-04T02:31:23;12.70;99.90
19966;DHT22;10144;50.874;4.762;2023-06-04T02:34:13;12.70;99.90
19966;DHT22;10144;50.874;4.762;2023-06-04T02:36:41;12.70;99.90
19966;DHT22;10144;50.874;4.762;2023-06-04T02:39:13;12.70;99.90
19966;DHT22;10144;50.874;4.762;2023-06-04T02:41:39;12.70;99.90
19966;DHT22;10144;50.874;4.762;2023-06-04T02:47:27;12.60;99.90
19966;DHT22;10144;50.874;4.762;2023-06-04T02:57:03;12.40;99.90
19966;DHT22;10144;50.874;4.762;2023-06-04T02:59:31;12.40;99.90
19966;DHT22;10144;50.874;4.762;2023-06-04T03:02:04;12.40;99.90
19966;DHT22;10144;50.874;4.762;2023-06-04T03:07:52;12.30;99.90
19966;DHT22;10144;50.874;4.762;2023-06-04T03:13:40;12.30;99.90
19966;DHT22;10144;50.874;4.762;2023-06-04T03:19:28;12.30;99.90
19966;DHT22;10144;50.874;4.762;2023-06-04T03:28:47;12.10;99.90
19966;DHT22;10144;50.874;4.762;2023-06-04T03:34:30;12.10;99.90
19966;DHT22;10144;50.874;4.762;2023-06-04T03:37:06;12.00;99.90
19966;DHT22;10144;50.874;4.762;2023-06-04T03:39:35;12.00;99.90
19966;DHT22;10144;50.874;4.762;2023-06-04T03:42:04;12.00;99.90
19966;DHT22;10144;50.874;4.762;2023-06-04T03:44:30;12.00;99.90
19966;DHT22;10144;50.874;4.762;2023-06-04T03:47:03;12.00;99.90
19966;DHT22;10144;50.874;4.762;2023-06-04T03:49:30;12.00;99.90
19966;DHT22;10144;50.874;4.762;2023-06-04T03:52:11;12.00;99.90
19966;DHT22;10144;50.874;4.762;2023-06-04T03:54:41;12.10;99.90
19966;DHT22;10144;50.874;4.762;2023-06-04T04:00:29;12.10;99.90
19966;DHT22;10144;50.874;4.762;2023-06-04T04:06:17;12.10;99.90
19966;DHT22;10144;50.874;4.762;2023-06-04T04:12:06;12.00;99.90
19966;DHT22;10144;50.874;4.762;2023-06-04T04:17:55;12.20;99.90
19966;DHT22;10144;50.874;4.762;2023-06-04T04:23:45;12.30;99.90
19966;DHT22;10144;50.874;4.762;2023-06-04T04:29:33;12.60;99.90
19966;DHT22;10144;50.874;4.762;2023-06-04T04:35:22;13.30;99.90
19966;DHT22;10144;50.874;4.762;2023-06-04T04:41:11;14.10;99.90
19966;DHT22;10144;50.874;4.762;2023-06-04T04:46:59;14.80;99.90
19966;DHT22;10144;50.874;4.762;2023-06-04T04:52:47;15.80;99.90
19966;DHT22;10144;50.874;4.762;2023-06-04T04:55:33;16.20;99.90
19966;DHT22;10144;50.874;4.762;2023-06-04T05:01:21;17.10;99.90
19966;DHT22;10144;50.874;4.762;2023-06-04T05:07:09;17.70;99.90
19966;DHT22;10144;50.874;4.762;2023-06-04T05:12:58;18.30;99.90
19966;DHT22;10144;50.874;4.762;2023-06-04T05:15:50;18.50;99.90
19966;DHT22;10144;50.874;4.762;2023-06-04T05:18:31;18.70;99.90
19966;DHT22;10144;50.874;4.762;2023-06-04T05:21:00;18.90;99.90
19966;DHT22;10144;50.874;4.762;2023-06-04T05:24:01;19.00;99.90
19966;DHT22;10144;50.874;4.762;2023-06-04T05:29:49;19.30;99.90
19966;DHT22;10144;50.874;4.762;2023-06-04T05:35:36;19.70;99.90
19966;DHT22;10144;50.874;4.762;2023-06-04T05:41:29;20.30;99.90
19966;DHT22;10144;50.874;4.762;2023-06-04T05:47:16;20.40;99.90
19966;DHT22;10144;50.874;4.762;2023-06-04T05:53:05;19.90;99.90
19966;DHT22;10144;50.874;4.762;2023-06-04T05:58:53;20.60;99.90
19966;DHT22;10144;50.874;4.762;2023-06-04T06:01:30;20.30;99.90
19966;DHT22;10144;50.874;4.762;2023-06-04T06:07:18;21.10;99.90
19966;DHT22;10144;50.874;4.762;2023-06-04T06:13:07;22.70;99.90
19966;DHT22;10144;50.874;4.762;2023-06-04T06:15:36;23.30;99.90
19966;DHT22;10144;50.874;4.762;2023-06-04T06:18:04;23.80;99.90
19966;DHT22;10144;50.874;4.762;2023-06-04T06:20:46;24.20;99.90
19966;DHT22;10144;50.874;4.762;2023-06-04T06:26:34;24.40;99.90
19966;DHT22;10144;50.874;4.762;2023-06-04T06:32:22;24.90;99.90
19966;DHT22;10144;50.874;4.762;2023-06-04T06:44:40;25.60;99.90
19966;DHT22;10144;50.874;4.762;2023-06-04T06:50:28;26.30;99.30
19966;DHT22;10144;50.874;4.762;2023-06-04T06:56:16;26.70;97.00
19966;DHT22;10144;50.874;4.762;2023-06-04T07:02:05;27.10;94.30
19966;DHT22;10144;50.874;4.762;2023-06-04T07:07:53;26.40;91.80
19966;DHT22;10144;50.874;4.762;2023-06-04T07:13:42;26.20;93.50
19966;DHT22;10144;50.874;4.762;2023-06-04T07:19:29;25.70;93.40
19966;DHT22;10144;50.874;4.762;2023-06-04T07:25:17;26.90;92.10
19966;DHT22;10144;50.874;4.762;2023-06-04T07:31:04;27.80;89.70
19966;DHT22;10144;50.874;4.762;2023-06-04T07:36:56;27.70;86.10
19966;DHT22;10144;50.874;4.762;2023-06-04T07:42:46;26.70;88.30
19966;DHT22;10144;50.874;4.762;2023-06-04T07:55:23;27.90;87.70
19966;DHT22;10144;50.874;4.762;2023-06-04T07:57:51;28.60;87.60
19966;DHT22;10144;50.874;4.762;2023-06-04T08:00:19;29.10;83.60
19966;DHT22;10144;50.874;4.762;2023-06-04T08:02:46;29.40;81.50
19966;DHT22;10144;50.874;4.762;2023-06-04T08:05:12;30.20;81.80
19966;DHT22;10144;50.874;4.762;2023-06-04T08:07:43;29.90;77.70
19966;DHT22;10144;50.874;4.762;2023-06-04T08:10:14;29.50;79.70
19966;DHT22;10144;50.874;4.762;2023-06-04T08:12:43;29.80;81.40
19966;DHT22;10144;50.874;4.762;2023-06-04T08:18:31;30.50;75.70
19966;DHT22;10144;50.874;4.762;2023-06-04T08:20:57;29.70;75.70
19966;DHT22;10144;50.874;4.762;2023-06-04T08:23:24;28.80;81.20
19966;DHT22;10144;50.874;4.762;2023-06-04T08:25:50;29.20;81.30
19966;DHT22;10144;50.874;4.762;2023-06-04T08:28:19;30.10;79.60
19966;DHT22;10144;50.874;4.762;2023-06-04T08:30:48;31.00;78.30
19966;DHT22;10144;50.874;4.762;2023-06-04T08:33:32;31.60;76.90
19966;DHT22;10144;50.874;4.762;2023-06-04T08:35:57;31.80;75.10
19966;DHT22;10144;50.874;4.762;2023-06-04T08:38:23;32.30;73.20
19966;DHT22;10144;50.874;4.762;2023-06-04T08:40:52;32.70;73.00
19966;DHT22;10144;50.874;4.762;2023-06-04T08:43:19;32.70;70.00
19966;DHT22;10144;50.874;4.762;2023-06-04T08:45:48;32.60;69.60
19966;DHT22;10144;50.874;4.762;2023-06-04T08:48:18;33.30;68.90
19966;DHT22;10144;50.874;4.762;2023-06-04T08:51:02;32.50;66.60
19966;DHT22;10144;50.874;4.762;2023-06-04T08:53:30;31.00;69.30
19966;DHT22;10144;50.874;4.762;2023-06-04T08:55:56;30.80;71.80
19966;DHT22;10144;50.874;4.762;2023-06-04T08:58:23;31.40;68.40
19966;DHT22;10144;50.874;4.762;2023-06-04T09:00:49;31.80;67.00
19966;DHT22;10144;50.874;4.762;2023-06-04T09:03:22;32.20;67.10
19966;DHT22;10144;50.874;4.762;2023-06-04T09:05:55;31.90;71.00
19966;DHT22;10144;50.874;4.762;2023-06-04T09:08:23;30.50;67.80
19966;DHT22;10144;50.874;4.762;2023-06-04T09:10:53;28.90;69.30
19966;DHT22;10144;50.874;4.762;2023-06-04T09:13:22;28.40;71.20
19966;DHT22;10144;50.874;4.762;2023-06-04T09:16:04;28.80;73.10
19966;DHT22;10144;50.874;4.762;2023-06-04T09:18:31;28.50;68.40
19966;DHT22;10144;50.874;4.762;2023-06-04T09:21:08;29.30;74.40
19966;DHT22;10144;50.874;4.762;2023-06-04T09:23:47;30.20;67.60
19966;DHT22;10144;50.874;4.762;2023-06-04T09:26:14;30.30;67.10
19966;DHT22;10144;50.874;4.762;2023-06-04T09:28:40;30.20;66.00
19966;DHT22;10144;50.874;4.762;2023-06-04T09:31:14;29.30;65.30
19966;DHT22;10144;50.874;4.762;2023-06-04T09:33:49;29.40;68.80
19966;DHT22;10144;50.874;4.762;2023-06-04T09:36:16;28.70;67.90
19966;DHT22;10144;50.874;4.762;2023-06-04T09:38:42;28.60;74.20
19966;DHT22;10144;50.874;4.762;2023-06-04T09:41:18;29.40;69.40
19966;DHT22;10144;50.874;4.762;2023-06-04T09:43:48;30.00;64.50
19966;DHT22;10144;50.874;4.762;2023-06-04T09:46:15;30.40;65.00
19966;DHT22;10144;50.874;4.762;2023-06-04T09:48:42;29.30;67.60
19966;DHT22;10144;50.874;4.762;2023-06-04T09:51:13;29.00;65.30
19966;DHT22;10144;50.874;4.762;2023-06-04T09:53:40;28.50;65.70
19966;DHT22;10144;50.874;4.762;2023-06-04T09:56:07;27.90;68.10
19966;DHT22;10144;50.874;4.762;2023-06-04T09:58:34;27.80;69.80
19966;DHT22;10144;50.874;4.762;2023-06-04T10:01:03;27.30;66.80
19966;DHT22;10144;50.874;4.762;2023-06-04T10:03:34;27.20;69.90
19966;DHT22;10144;50.874;4.762;2023-06-04T10:06:04;27.20;70.80
19966;DHT22;10144;50.874;4.762;2023-06-04T10:08:31;27.20;67.90
19966;DHT22;10144;50.874;4.762;2023-06-04T10:11:00;26.30;69.70
19966;DHT22;10144;50.874;4.762;2023-06-04T10:13:29;26.20;69.40
19966;DHT22;10144;50.874;4.762;2023-06-04T10:15:58;26.20;70.60
19966;DHT22;10144;50.874;4.762;2023-06-04T10:18:27;26.50;71.10
19966;DHT22;10144;50.874;4.762;2023-06-04T10:20:57;26.70;72.70
19966;DHT22;10144;50.874;4.762;2023-06-04T10:23:24;27.30;71.90
19966;DHT22;10144;50.874;4.762;2023-06-04T10:25:51;28.00;69.60
19966;DHT22;10144;50.874;4.762;2023-06-04T10:28:19;27.70;69.90
19966;DHT22;10144;50.874;4.762;2023-06-04T10:30:48;27.00;73.80
19966;DHT22;10144;50.874;4.762;2023-06-04T10:33:20;26.40;69.70
19966;DHT22;10144;50.874;4.762;2023-06-04T10:35:46;26.80;72.60
19966;DHT22;10144;50.874;4.762;2023-06-04T10:38:13;27.70;70.00
19966;DHT22;10144;50.874;4.762;2023-06-04T10:40:40;28.20;69.40
19966;DHT22;10144;50.874;4.762;2023-06-04T10:43:12;29.00;67.30
19966;DHT22;10144;50.874;4.762;2023-06-04T10:45:39;29.40;65.20
19966;DHT22;10144;50.874;4.762;2023-06-04T10:48:10;30.20;66.40
19966;DHT22;10144;50.874;4.762;2023-06-04T10:50:48;30.60;64.70
19966;DHT22;10144;50.874;4.762;2023-06-04T10:53:14;30.70;63.70
19966;DHT22;10144;50.874;4.762;2023-06-04T10:55:47;31.30;64.70
19966;DHT22;10144;50.874;4.762;2023-06-04T10:58:13;31.70;65.30
19966;DHT22;10144;50.874;4.762;2023-06-04T11:00:43;30.60;60.50
19966;DHT22;10144;50.874;4.762;2023-06-04T11:03:12;29.20;61.40
19966;DHT22;10144;50.874;4.762;2023-06-04T11:05:45;28.50;63.40
19966;DHT22;10144;50.874;4.762;2023-06-04T11:08:12;28.00;67.80
19966;DHT22;10144;50.874;4.762;2023-06-04T11:10:42;28.30;68.00
19966;DHT22;10144;50.874;4.762;2023-06-04T11:13:09;28.40;67.30
19966;DHT22;10144;50.874;4.762;2023-06-04T11:15:42;28.90;66.50
19966;DHT22;10144;50.874;4.762;2023-06-04T11:18:13;29.40;63.00
19966;DHT22;10144;50.874;4.762;2023-06-04T11:20:38;29.70;64.60
19966;DHT22;10144;50.874;4.762;2023-06-04T11:23:04;30.80;65.10
19966;DHT22;10144;50.874;4.762;2023-06-04T11:25:32;30.90;61.70
19966;DHT22;10144;50.874;4.762;2023-06-04T11:28:01;30.90;62.00
19966;DHT22;10144;50.874;4.762;2023-06-04T11:30:29;31.10;61.20
19966;DHT22;10144;50.874;4.762;2023-06-04T11:33:05;30.50;60.50
19966;DHT22;10144;50.874;4.762;2023-06-04T11:35:39;29.40;63.00
19966;DHT22;10144;50.874;4.762;2023-06-04T11:38:05;28.10;66.60
19966;DHT22;10144;50.874;4.762;2023-06-04T11:40:31;27.30;65.20
19966;DHT22;10144;50.874;4.762;2023-06-04T11:42:57;27.20;67.70
19966;DHT22;10144;50.874;4.762;2023-06-04T11:45:23;28.00;66.70
19966;DHT22;10144;50.874;4.762;2023-06-04T11:47:54;28.40;66.20
19966;DHT22;10144;50.874;4.762;2023-06-04T11:50:22;27.40;67.50
19966;DHT22;10144;50.874;4.762;2023-06-04T11:52:48;26.60;71.70
19966;DHT22;10144;50.874;4.762;2023-06-04T11:55:16;26.70;67.80
19966;DHT22;10144;50.874;4.762;2023-06-04T11:57:46;27.20;66.10
19966;DHT22;10144;50.874;4.762;2023-06-04T12:00:14;27.80;68.60
19966;DHT22;10144;50.874;4.762;2023-06-04T12:02:49;28.20;63.50
19966;DHT22;10144;50.874;4.762;2023-06-04T12:05:17;28.20;66.00
19966;DHT22;10144;50.874;4.762;2023-06-04T12:07:48;27.40;62.90
19966;DHT22;10144;50.874;4.762;2023-06-04T12:10:19;26.20;63.00
19966;DHT22;10144;50.874;4.762;2023-06-04T12:12:46;25.90;67.70
19966;DHT22;10144;50.874;4.762;2023-06-04T12:15:18;26.00;71.60
19966;DHT22;10144;50.874;4.762;2023-06-04T12:17:52;27.00;72.30
19966;DHT22;10144;50.874;4.762;2023-06-04T12:20:30;27.60;65.70
19966;DHT22;10144;50.874;4.762;2023-06-04T12:22:57;27.60;67.10
19966;DHT22;10144;50.874;4.762;2023-06-04T12:25:27;27.40;66.20
19966;DHT22;10144;50.874;4.762;2023-06-04T12:27:53;27.90;66.80
19966;DHT22;10144;50.874;4.762;2023-06-04T12:30:21;28.40;65.30
19966;DHT22;10144;50.874;4.762;2023-06-04T12:32:48;28.70;64.60
19966;DHT22;10144;50.874;4.762;2023-06-04T12:35:14;29.00;63.70
19966;DHT22;10144;50.874;4.762;2023-06-04T12:37:41;29.10;64.40
19966;DHT22;10144;50.874;4.762;2023-06-04T12:40:07;29.40;65.50
19966;DHT22;10144;50.874;4.762;2023-06-04T12:42:35;29.50;62.60
19966;DHT22;10144;50.874;4.762;2023-06-04T12:45:00;29.80;62.30
19966;DHT22;10144;50.874;4.762;2023-06-04T12:47:26;30.00;62.50
19966;DHT22;10144;50.874;4.762;2023-06-04T12:49:52;30.00;62.80
19966;DHT22;10144;50.874;4.762;2023-06-04T12:52:18;29.70;61.00
19966;DHT22;10144;50.874;4.762;2023-06-04T12:54:43;29.60;63.40
19966;DHT22;10144;50.874;4.762;2023-06-04T12:57:09;29.30;63.90
19966;DHT22;10144;50.874;4.762;2023-06-04T12:59:35;29.30;63.40
19966;DHT22;10144;50.874;4.762;2023-06-04T13:02:01;29.20;64.30
19966;DHT22;10144;50.874;4.762;2023-06-04T13:04:26;28.90;63.10
19966;DHT22;10144;50.874;4.762;2023-06-04T13:06:52;28.90;66.50
19966;DHT22;10144;50.874;4.762;2023-06-04T13:09:20;28.80;64.40
19966;DHT22;10144;50.874;4.762;2023-06-04T13:11:48;28.20;62.40
19966;DHT22;10144;50.874;4.762;2023-06-04T13:14:15;27.60;63.70
19966;DHT22;10144;50.874;4.762;2023-06-04T13:16:41;27.30;64.00
19966;DHT22;10144;50.874;4.762;2023-06-04T13:19:07;27.20;66.30
19966;DHT22;10144;50.874;4.762;2023-06-04T13:21:33;27.20;64.10
19966;DHT22;10144;50.874;4.762;2023-06-04T13:23:59;27.30;65.00
19966;DHT22;10144;50.874;4.762;2023-06-04T13:26:24;27.00;66.10
19966;DHT22;10144;50.874;4.762;2023-06-04T13:28:50;26.90;65.00
19966;DHT22;10144;50.874;4.762;2023-06-04T13:31:16;26.70;63.20
19966;DHT22;10144;50.874;4.762;2023-06-04T13:33:42;26.50;63.90
19966;DHT22;10144;50.874;4.762;2023-06-04T13:36:08;26.20;65.10
19966;DHT22;10144;50.874;4.762;2023-06-04T13:38:34;26.20;65.70
19966;DHT22;10144;50.874;4.762;2023-06-04T13:41:00;25.90;64.80
19966;DHT22;10144;50.874;4.762;2023-06-04T13:43:25;25.90;65.70
19966;DHT22;10144;50.874;4.762;2023-06-04T13:45:51;25.80;65.90
19966;DHT22;10144;50.874;4.762;2023-06-04T13:48:17;25.80;64.50
19966;DHT22;10144;50.874;4.762;2023-06-04T13:50:43;25.70;68.10
19966;DHT22;10144;50.874;4.762;2023-06-04T13:53:09;25.40;65.50
19966;DHT22;10144;50.874;4.762;2023-06-04T13:55:35;25.30;66.30
19966;DHT22;10144;50.874;4.762;2023-06-04T13:58:00;25.40;68.10
19966;DHT22;10144;50.874;4.762;2023-06-04T14:00:26;25.70;66.70
19966;DHT22;10144;50.874;4.762;2023-06-04T14:02:52;25.80;66.40
19966;DHT22;10144;50.874;4.762;2023-06-04T14:05:20;25.70;65.10
19966;DHT22;10144;50.874;4.762;2023-06-04T14:07:46;25.70;65.80
19966;DHT22;10144;50.874;4.762;2023-06-04T14:10:12;25.60;67.10
19966;DHT22;10144;50.874;4.762;2023-06-04T14:12:38;25.40;68.20
19966;DHT22;10144;50.874;4.762;2023-06-04T14:15:08;25.20;67.80
19966;DHT22;10144;50.874;4.762;2023-06-04T14:17:34;25.30;67.60
19966;DHT22;10144;50.874;4.762;2023-06-04T14:20:01;25.40;66.10
19966;DHT22;10144;50.874;4.762;2023-06-04T14:22:35;25.60;67.20
19966;DHT22;10144;50.874;4.762;2023-06-04T14:25:05;25.70;65.50
19966;DHT22;10144;50.874;4.762;2023-06-04T14:27:32;25.80;65.50
19966;DHT22;10144;50.874;4.762;2023-06-04T14:29:58;25.80;66.10
19966;DHT22;10144;50.874;4.762;2023-06-04T14:32:24;26.10;65.90
19966;DHT22;10144;50.874;4.762;2023-06-04T14:34:50;26.20;65.70
19966;DHT22;10144;50.874;4.762;2023-06-04T14:37:16;26.40;66.30
19966;DHT22;10144;50.874;4.762;2023-06-04T14:39:41;26.40;62.60
19966;DHT22;10144;50.874;4.762;2023-06-04T14:42:07;26.10;66.70
19966;DHT22;10144;50.874;4.762;2023-06-04T14:44:33;25.40;65.80
19966;DHT22;10144;50.874;4.762;2023-06-04T14:46:58;25.20;65.10
19966;DHT22;10144;50.874;4.762;2023-06-04T14:49:24;25.20;64.70
19966;DHT22;10144;50.874;4.762;2023-06-04T14:51:50;25.30;65.00
19966;DHT22;10144;50.874;4.762;2023-06-04T14:54:15;25.50;64.60
19966;DHT22;10144;50.874;4.762;2023-06-04T14:56:41;25.80;65.00
19966;DHT22;10144;50.874;4.762;2023-06-04T14:59:07;25.60;65.50
19966;DHT22;10144;50.874;4.762;2023-06-04T15:01:36;25.40;66.40
19966;DHT22;10144;50.874;4.762;2023-06-04T15:04:03;25.30;64.60
19966;DHT22;10144;50.874;4.762;2023-06-04T15:06:31;25.40;67.40
19966;DHT22;10144;50.874;4.762;2023-06-04T15:09:03;25.40;66.40
19966;DHT22;10144;50.874;4.762;2023-06-04T15:11:28;25.60;65.00
19966;DHT22;10144;50.874;4.762;2023-06-04T15:13:54;25.70;66.60
19966;DHT22;10144;50.874;4.762;2023-06-04T15:16:21;25.80;63.60
19966;DHT22;10144;50.874;4.762;2023-06-04T15:18:47;25.80;62.70
19966;DHT22;10144;50.874;4.762;2023-06-04T15:21:13;25.70;63.00
19966;DHT22;10144;50.874;4.762;2023-06-04T15:23:39;25.60;63.60
19966;DHT22;10144;50.874;4.762;2023-06-04T15:26:05;25.70;63.20
19966;DHT22;10144;50.874;4.762;2023-06-04T15:28:31;25.60;64.60
19966;DHT22;10144;50.874;4.762;2023-06-04T15:30:57;25.60;63.90
19966;DHT22;10144;50.874;4.762;2023-06-04T15:33:23;25.60;61.80
19966;DHT22;10144;50.874;4.762;2023-06-04T15:35:48;25.60;63.40
19966;DHT22;10144;50.874;4.762;2023-06-04T15:38:14;25.70;62.20
19966;DHT22;10144;50.874;4.762;2023-06-04T15:40:40;25.60;62.20
19966;DHT22;10144;50.874;4.762;2023-06-04T15:43:06;25.30;62.60
19966;DHT22;10144;50.874;4.762;2023-06-04T15:45:32;25.20;64.50
19966;DHT22;10144;50.874;4.762;2023-06-04T15:47:57;25.20;64.10
19966;DHT22;10144;50.874;4.762;2023-06-04T15:50:23;25.20;65.50
19966;DHT22;10144;50.874;4.762;2023-06-04T15:52:48;25.40;64.50
19966;DHT22;10144;50.874;4.762;2023-06-04T15:55:14;25.30;64.20
19966;DHT22;10144;50.874;4.762;2023-06-04T15:57:40;25.20;63.50
19966;DHT22;10144;50.874;4.762;2023-06-04T16:00:07;25.00;64.00
19966;DHT22;10144;50.874;4.762;2023-06-04T16:02:33;24.80;65.70
19966;DHT22;10144;50.874;4.762;2023-06-04T16:04:59;24.70;67.40
19966;DHT22;10144;50.874;4.762;2023-06-04T16:07:25;24.80;67.10
19966;DHT22;10144;50.874;4.762;2023-06-04T16:09:50;24.90;65.80
19966;DHT22;10144;50.874;4.762;2023-06-04T16:12:16;24.90;67.90
19966;DHT22;10144;50.874;4.762;2023-06-04T16:14:41;25.00;66.50
19966;DHT22;10144;50.874;4.762;2023-06-04T16:17:07;25.10;65.70
19966;DHT22;10144;50.874;4.762;2023-06-04T16:19:32;25.20;67.10
19966;DHT22;10144;50.874;4.762;2023-06-04T16:21:58;25.20;65.70
19966;DHT22;10144;50.874;4.762;2023-06-04T16:24:24;25.40;64.60
19966;DHT22;10144;50.874;4.762;2023-06-04T16:26:50;25.40;65.20
19966;DHT22;10144;50.874;4.762;2023-06-04T16:29:15;25.40;67.30
19966;DHT22;10144;50.874;4.762;2023-06-04T16:31:41;25.50;64.70
19966;DHT22;10144;50.874;4.762;2023-06-04T16:34:07;25.50;65.80
19966;DHT22;10144;50.874;4.762;2023-06-04T16:36:33;25.40;67.60
19966;DHT22;10144;50.874;4.762;2023-06-04T16:38:59;25.40;66.60
19966;DHT22;10144;50.874;4.762;2023-06-04T16:41:24;25.40;66.40
19966;DHT22;10144;50.874;4.762;2023-06-04T16:43:51;25.30;66.90
19966;DHT22;10144;50.874;4.762;2023-06-04T16:46:17;25.20;66.10
19966;DHT22;10144;50.874;4.762;2023-06-04T16:48:43;25.20;65.00
19966;DHT22;10144;50.874;4.762;2023-06-04T16:51:09;25.20;65.10
19966;DHT22;10144;50.874;4.762;2023-06-04T16:53:34;25.10;65.30
19966;DHT22;10144;50.874;4.762;2023-06-04T16:56:00;25.10;67.60
19966;DHT22;10144;50.874;4.762;2023-06-04T16:58:29;25.10;68.20
19966;DHT22;10144;50.874;4.762;2023-06-04T17:00:55;25.20;67.40
19966;DHT22;10144;50.874;4.762;2023-06-04T17:03:21;25.20;67.30
19966;DHT22;10144;50.874;4.762;2023-06-04T17:05:47;25.20;67.60
19966;DHT22;10144;50.874;4.762;2023-06-04T17:08:15;25.10;66.60
19966;DHT22;10144;50.874;4.762;2023-06-04T17:10:41;25.00;66.20
19966;DHT22;10144;50.874;4.762;2023-06-04T17:13:07;24.90;67.20
19966;DHT22;10144;50.874;4.762;2023-06-04T17:15:36;24.70;68.10
19966;DHT22;10144;50.874;4.762;2023-06-04T17:18:05;24.60;67.50
19966;DHT22;10144;50.874;4.762;2023-06-04T17:20:41;24.50;67.40
19966;DHT22;10144;50.874;4.762;2023-06-04T17:23:24;24.40;67.90
19966;DHT22;10144;50.874;4.762;2023-06-04T17:25:56;24.60;68.10
19966;DHT22;10144;50.874;4.762;2023-06-04T17:28:30;24.60;69.10
19966;DHT22;10144;50.874;4.762;2023-06-04T17:30:56;24.50;68.10
19966;DHT22;10144;50.874;4.762;2023-06-04T17:33:27;24.30;68.60
19966;DHT22;10144;50.874;4.762;2023-06-04T17:35:52;24.30;69.20
19966;DHT22;10144;50.874;4.762;2023-06-04T17:38:20;24.30;71.00
19966;DHT22;10144;50.874;4.762;2023-06-04T17:40:49;24.30;71.20
19966;DHT22;10144;50.874;4.762;2023-06-04T17:43:20;24.30;70.70
19966;DHT22;10144;50.874;4.762;2023-06-04T17:45:49;24.30;70.50
19966;DHT22;10144;50.874;4.762;2023-06-04T17:48:24;24.00;70.20
19966;DHT22;10144;50.874;4.762;2023-06-04T17:50:53;24.00;70.80
19966;DHT22;10144;50.874;4.762;2023-06-04T17:53:49;24.00;71.60
19966;DHT22;10144;50.874;4.762;2023-06-04T17:56:16;24.20;71.70
19966;DHT22;10144;50.874;4.762;2023-06-04T17:58:42;24.10;71.80
19966;DHT22;10144;50.874;4.762;2023-06-04T18:01:10;24.20;72.40
19966;DHT22;10144;50.874;4.762;2023-06-04T18:03:36;24.20;73.30
19966;DHT22;10144;50.874;4.762;2023-06-04T18:06:04;24.10;71.30
19966;DHT22;10144;50.874;4.762;2023-06-04T18:08:30;24.00;72.50
19966;DHT22;10144;50.874;4.762;2023-06-04T18:10:56;24.00;73.50
19966;DHT22;10144;50.874;4.762;2023-06-04T18:13:24;23.90;73.80
19966;DHT22;10144;50.874;4.762;2023-06-04T18:15:49;23.60;73.30
19966;DHT22;10144;50.874;4.762;2023-06-04T18:18:15;23.70;74.20
19966;DHT22;10144;50.874;4.762;2023-06-04T18:20:40;23.70;73.70
19966;DHT22;10144;50.874;4.762;2023-06-04T18:23:06;23.70;74.50
19966;DHT22;10144;50.874;4.762;2023-06-04T18:25:32;23.70;75.10
19966;DHT22;10144;50.874;4.762;2023-06-04T18:27:58;23.80;75.90
19966;DHT22;10144;50.874;4.762;2023-06-04T18:30:23;23.80;74.70
19966;DHT22;10144;50.874;4.762;2023-06-04T18:32:49;23.80;74.60
19966;DHT22;10144;50.874;4.762;2023-06-04T18:35:15;23.80;75.40
19966;DHT22;10144;50.874;4.762;2023-06-04T18:37:42;23.80;75.60
19966;DHT22;10144;50.874;4.762;2023-06-04T18:40:08;23.70;76.00
19966;DHT22;10144;50.874;4.762;2023-06-04T18:42:34;23.70;76.90
19966;DHT22;10144;50.874;4.762;2023-06-04T18:45:00;23.60;77.30